Time;durP1;ratioP1;P1;durP2;ratioP2;P2;SDS_P1;SDS_P2;PMS_P1;PMS_P2;Temp;Humidity;BMP_temperature;BMP_pressure;BME280_temperature;BME280_humidity;BME280_pressure;Samples;Min_cycle;Max_cycle;Signal;HPM_P1;HPM_P2
2023/08/28 00:01:55;;;;;;;3.83;3.00;;;15.60;99.90;;;;;;5031026;28;20566;-63
2023/08/28 00:04:22;;;;;;;3.40;3.20;;;15.50;99.90;;;;;;5031819;28;20453;-63
2023/08/28 00:06:50;;;;;;;3.10;2.90;;;15.50;99.90;;;;;;5031439;28;20532;-63
2023/08/28 00:09:17;;;;;;;3.70;3.40;;;15.40;99.90;;;;;;5032173;28;20489;-63
2023/08/28 00:11:45;;;;;;;3.90;3.60;;;15.40;99.90;;;;;;5032427;28;20469;-63
2023/08/28 00:14:12;;;;;;;5.13;3.20;;;15.40;99.90;;;;;;5032452;28;20479;-63
2023/08/28 00:16:38;;;;;;;6.40;3.90;;;15.40;99.90;;;;;;5031075;28;20536;-63
2023/08/28 00:19:05;;;;;;;3.93;3.60;;;15.40;99.90;;;;;;5032330;28;21065;-64
2023/08/28 00:21:32;;;;;;;4.57;4.17;;;15.30;99.90;;;;;;5031587;28;20456;-63
2023/08/28 00:24:00;;;;;;;3.20;3.00;;;15.30;99.90;;;;;;5031624;28;20444;-63
2023/08/28 00:26:27;;;;;;;4.27;3.00;;;15.30;99.90;;;;;;5031124;28;20454;-63
2023/08/28 00:28:54;;;;;;;3.40;3.20;;;15.20;99.90;;;;;;5031904;28;20485;-63
2023/08/28 00:31:21;;;;;;;3.40;3.10;;;15.20;99.90;;;;;;5031813;28;20553;-64
2023/08/28 00:33:48;;;;;;;3.00;2.80;;;15.20;99.90;;;;;;5031761;28;20535;-63
2023/08/28 00:36:16;;;;;;;3.30;3.10;;;15.20;99.90;;;;;;5030984;28;20451;-63
2023/08/28 00:38:43;;;;;;;3.97;3.57;;;15.20;99.90;;;;;;5031918;28;20544;-63
2023/08/28 00:41:11;;;;;;;5.70;2.87;;;15.20;99.90;;;;;;5031626;28;20475;-63
2023/08/28 00:43:38;;;;;;;4.07;2.73;;;15.20;99.90;;;;;;5031486;28;20474;-63
2023/08/28 00:46:06;;;;;;;3.13;2.80;;;15.10;99.90;;;;;;5030805;28;20456;-64
2023/08/28 00:48:33;;;;;;;3.03;2.83;;;15.10;99.90;;;;;;5031143;28;20935;-63
2023/08/28 00:51:01;;;;;;;3.90;3.10;;;15.00;99.90;;;;;;5031249;28;20875;-64
2023/08/28 00:53:28;;;;;;;3.30;3.00;;;15.00;99.90;;;;;;5031224;28;20475;-63
2023/08/28 00:55:55;;;;;;;4.27;3.07;;;15.00;99.90;;;;;;5030655;28;20453;-63
2023/08/28 00:58:23;;;;;;;3.60;3.40;;;14.90;99.90;;;;;;5031203;28;20450;-63
2023/08/28 01:00:50;;;;;;;2.53;2.33;;;14.90;99.90;;;;;;5030843;28;20968;-63
2023/08/28 01:03:17;;;;;;;5.43;2.90;;;14.80;99.90;;;;;;5030968;28;20910;-63
2023/08/28 01:05:52;;;;;;;4.10;3.47;;;14.80;99.90;;;;;;5031103;28;20460;-64
2023/08/28 01:08:29;;;;;;;3.37;3.07;;;14.80;99.90;;;;;;5031120;28;20460;-63
2023/08/28 01:10:58;;;;;;;3.00;2.80;;;14.70;99.90;;;;;;5030601;28;20441;-63
2023/08/28 01:13:35;;;;;;;4.07;3.10;;;14.70;99.90;;;;;;5030360;28;20484;-63
2023/08/28 01:16:02;;;;;;;2.90;2.60;;;14.60;99.90;;;;;;5022950;28;20555;-64
2023/08/28 01:18:29;;;;;;;3.00;2.80;;;14.60;99.90;;;;;;5031055;28;20856;-63
2023/08/28 01:20:57;;;;;;;4.60;2.73;;;14.60;99.90;;;;;;5028692;28;20464;-63
2023/08/28 01:23:32;;;;;;;3.73;3.27;;;14.50;99.90;;;;;;5030514;28;20580;-63
2023/08/28 01:26:00;;;;;;;5.30;3.60;;;14.50;99.90;;;;;;5029937;28;20551;-63
2023/08/28 01:28:28;;;;;;;3.30;3.07;;;14.40;99.90;;;;;;5030455;28;20452;-63
2023/08/28 01:30:55;;;;;;;3.23;2.93;;;14.40;99.90;;;;;;5010153;28;20442;-64
2023/08/28 01:33:22;;;;;;;3.03;2.83;;;14.40;99.90;;;;;;5010739;28;20858;-64
2023/08/28 01:35:54;;;;;;;3.40;3.20;;;14.40;99.90;;;;;;5010957;28;20456;-64
2023/08/28 01:38:28;;;;;;;2.93;2.73;;;14.40;99.90;;;;;;5010643;28;20477;-63
2023/08/28 01:40:58;;;;;;;3.13;2.70;;;14.40;99.90;;;;;;5014434;28;20440;-63
2023/08/28 01:43:31;;;;;;;5.10;3.90;;;14.30;99.90;;;;;;5030218;28;20568;-63
2023/08/28 01:45:59;;;;;;;3.40;3.20;;;14.30;99.90;;;;;;5029708;28;20455;-63
2023/08/28 01:48:27;;;;;;;3.73;3.00;;;14.30;99.90;;;;;;5029755;28;21001;-63
2023/08/28 01:50:54;;;;;;;3.43;3.23;;;14.30;99.90;;;;;;5030058;28;20523;-63
2023/08/28 01:53:22;;;;;;;4.67;4.27;;;14.30;99.90;;;;;;5030181;28;20556;-63
2023/08/28 01:56:20;;;;;;;3.90;3.53;;;14.30;99.90;;;;;;5030235;28;20449;-63
2023/08/28 01:58:51;;;;;;;3.67;3.47;;;14.30;99.90;;;;;;5030038;28;20448;-64
2023/08/28 02:01:18;;;;;;;3.30;3.10;;;14.30;99.90;;;;;;5030172;28;20877;-63
2023/08/28 02:03:45;;;;;;;3.23;3.03;;;14.30;99.90;;;;;;5029949;28;20473;-63
2023/08/28 02:06:11;;;;;;;3.50;3.30;;;14.30;99.90;;;;;;5029434;28;20535;-63
2023/08/28 02:08:39;;;;;;;3.60;3.37;;;14.30;99.90;;;;;;5029910;28;20448;-63
2023/08/28 02:11:06;;;;;;;2.77;2.67;;;14.30;99.90;;;;;;5029843;28;20491;-63
2023/08/28 02:13:32;;;;;;;3.10;2.90;;;14.30;99.90;;;;;;5029462;28;20564;-63
2023/08/28 02:16:02;;;;;;;3.93;3.63;;;14.40;99.90;;;;;;5028732;28;20453;-64
2023/08/28 02:18:29;;;;;;;3.00;2.80;;;14.40;99.90;;;;;;5029765;28;20456;-63
2023/08/28 02:20:57;;;;;;;3.50;3.20;;;14.40;99.90;;;;;;5029869;28;20537;-63
2023/08/28 02:23:25;;;;;;;4.37;3.80;;;14.30;99.90;;;;;;5029394;28;20470;-63
2023/08/28 02:25:52;;;;;;;5.10;4.70;;;14.30;99.90;;;;;;5029398;28;20424;-63
2023/08/28 02:28:19;;;;;;;3.37;2.97;;;14.30;99.90;;;;;;5029244;28;21028;-63
2023/08/28 02:30:46;;;;;;;4.80;3.73;;;14.40;99.90;;;;;;5028587;28;20495;-64
2023/08/28 02:33:15;;;;;;;2.87;2.67;;;14.40;99.90;;;;;;5029484;28;20572;-63
2023/08/28 02:35:42;;;;;;;3.03;2.83;;;14.40;99.90;;;;;;5029516;28;20545;-63
2023/08/28 02:38:10;;;;;;;3.27;2.97;;;14.40;99.90;;;;;;5028695;28;20495;-63
2023/08/28 02:40:37;;;;;;;4.07;3.87;;;14.40;99.90;;;;;;5029233;28;20471;-63
2023/08/28 02:43:06;;;;;;;3.80;3.23;;;14.40;99.90;;;;;;5050854;22;20489;-63
2023/08/28 02:45:34;;;;;;;4.13;3.87;;;14.40;99.90;;;;;;5020545;28;20445;-63
2023/08/28 02:48:03;;;;;;;3.73;3.40;;;14.40;99.90;;;;;;5028049;28;20449;-63
2023/08/28 02:50:31;;;;;;;3.23;3.03;;;14.40;99.90;;;;;;5020484;28;20490;-63
2023/08/28 02:52:58;;;;;;;4.17;3.70;;;14.40;99.90;;;;;;5029049;28;20475;-63
2023/08/28 02:55:25;;;;;;;3.43;3.13;;;14.40;99.90;;;;;;5029125;28;20536;-63
2023/08/28 02:57:52;;;;;;;3.80;3.47;;;14.40;99.90;;;;;;5028251;28;21019;-64
2023/08/28 03:00:19;;;;;;;4.63;3.17;;;14.40;99.90;;;;;;5028784;28;20448;-63
2023/08/28 03:02:47;;;;;;;4.67;3.00;;;14.40;99.90;;;;;;5028520;28;20555;-63
2023/08/28 03:05:14;;;;;;;3.27;3.07;;;14.40;99.90;;;;;;5025734;28;20456;-63
2023/08/28 03:07:42;;;;;;;3.73;3.30;;;14.40;99.90;;;;;;5026105;28;20441;-63
2023/08/28 03:10:10;;;;;;;3.70;3.30;;;14.40;99.90;;;;;;5028590;28;20495;-63
2023/08/28 03:12:37;;;;;;;3.30;3.03;;;14.40;99.90;;;;;;5028537;28;20469;-64
2023/08/28 03:15:05;;;;;;;3.90;3.60;;;14.40;99.90;;;;;;5028519;28;20543;-63
2023/08/28 03:17:32;;;;;;;3.97;3.00;;;14.40;99.90;;;;;;5027662;28;20532;-64
2023/08/28 03:19:58;;;;;;;4.50;3.80;;;14.40;99.90;;;;;;5024775;28;20451;-63
2023/08/28 03:22:25;;;;;;;3.40;3.10;;;14.40;99.90;;;;;;5028348;28;20996;-62
2023/08/28 03:24:53;;;;;;;4.00;3.50;;;14.40;99.90;;;;;;5028607;28;20456;-63
2023/08/28 03:27:21;;;;;;;3.53;2.93;;;14.40;99.90;;;;;;5027790;28;20477;-63
2023/08/28 03:29:48;;;;;;;3.60;3.00;;;14.40;99.90;;;;;;5028327;28;20489;-63
2023/08/28 03:32:15;;;;;;;3.60;3.30;;;14.40;99.90;;;;;;5025613;28;21136;-64
2023/08/28 03:34:41;;;;;;;3.10;2.90;;;14.40;99.90;;;;;;5025999;28;20453;-64
2023/08/28 03:37:08;;;;;;;4.13;3.83;;;14.40;99.90;;;;;;5027590;28;20452;-64
2023/08/28 03:39:35;;;;;;;4.23;3.83;;;14.40;99.90;;;;;;5028130;28;20449;-64
2023/08/28 03:42:04;;;;;;;3.30;3.00;;;14.40;99.90;;;;;;5027877;28;20453;-64
2023/08/28 03:44:30;;;;;;;3.00;2.80;;;14.40;99.90;;;;;;5027948;28;20539;-64
2023/08/28 03:46:57;;;;;;;3.70;3.33;;;14.40;99.90;;;;;;5027335;28;20456;-64
2023/08/28 03:49:26;;;;;;;4.10;3.70;;;14.40;99.90;;;;;;5028213;28;20456;-63
2023/08/28 03:51:53;;;;;;;2.93;2.67;;;14.40;99.90;;;;;;5028148;28;20544;-64
2023/08/28 03:54:20;;;;;;;3.10;2.90;;;14.40;99.90;;;;;;5027838;28;20985;-64
2023/08/28 03:56:47;;;;;;;3.50;3.30;;;14.40;99.90;;;;;;5027328;28;20449;-64
2023/08/28 03:59:15;;;;;;;4.20;3.50;;;14.30;99.90;;;;;;5027803;28;20450;-64
2023/08/28 04:01:42;;;;;;;4.80;3.20;;;14.30;99.90;;;;;;5027891;28;20500;-63
2023/08/28 04:04:08;;;;;;;3.50;3.20;;;14.30;99.90;;;;;;5027874;28;20576;-64
2023/08/28 04:06:35;;;;;;;2.63;2.53;;;14.30;99.90;;;;;;5026995;28;20445;-64
2023/08/28 04:09:02;;;;;;;3.13;2.80;;;14.30;99.90;;;;;;5027801;28;20452;-64
2023/08/28 04:11:29;;;;;;;3.43;3.13;;;14.30;99.90;;;;;;5027515;28;20550;-64
2023/08/28 04:13:56;;;;;;;3.90;3.50;;;14.30;99.90;;;;;;5027739;28;20468;-64
2023/08/28 04:16:24;;;;;;;3.80;2.90;;;14.30;99.90;;;;;;5027010;28;20489;-63
2023/08/28 04:18:51;;;;;;;2.90;2.70;;;14.20;99.90;;;;;;5028101;28;20449;-64
2023/08/28 04:21:17;;;;;;;3.60;3.40;;;14.20;99.90;;;;;;5024154;28;20937;-63
2023/08/28 04:23:44;;;;;;;3.20;3.00;;;14.20;99.90;;;;;;5027603;28;20471;-64
2023/08/28 04:26:11;;;;;;;3.93;3.37;;;14.20;99.90;;;;;;5027022;28;20453;-63
2023/08/28 04:28:38;;;;;;;3.00;2.60;;;14.20;99.90;;;;;;5027752;28;20444;-63
2023/08/28 04:31:08;;;;;;;2.40;2.20;;;14.20;99.90;;;;;;5025836;28;20495;-63
2023/08/28 04:33:37;;;;;;;3.00;2.70;;;14.10;99.90;;;;;;5027728;28;20555;-63
2023/08/28 04:36:05;;;;;;;3.33;3.03;;;14.10;99.90;;;;;;5026942;28;20453;-63
2023/08/28 04:38:31;;;;;;;5.17;2.73;;;14.10;99.90;;;;;;5027700;28;20463;-64
2023/08/28 04:40:58;;;;;;;3.77;3.27;;;14.10;99.90;;;;;;5028120;28;20440;-64
2023/08/28 04:43:25;;;;;;;3.80;3.00;;;14.10;99.90;;;;;;5027443;28;20480;-64
2023/08/28 04:45:52;;;;;;;3.47;3.17;;;14.10;99.90;;;;;;5027384;28;20467;-63
2023/08/28 04:48:19;;;;;;;3.00;2.80;;;14.10;99.90;;;;;;5030286;28;20575;-64
2023/08/28 04:50:47;;;;;;;6.30;2.60;;;14.00;99.90;;;;;;5030795;28;20567;-64
2023/08/28 04:53:14;;;;;;;3.63;3.33;;;14.00;99.90;;;;;;5030811;28;20469;-64
2023/08/28 04:55:42;;;;;;;7.67;3.13;;;14.00;99.90;;;;;;5030926;28;20681;-64
2023/08/28 04:58:09;;;;;;;4.10;3.77;;;14.00;99.90;;;;;;5030208;28;21017;-64
2023/08/28 05:00:35;;;;;;;3.07;2.77;;;14.00;99.90;;;;;;5023080;28;20568;-64
2023/08/28 05:03:03;;;;;;;2.93;2.63;;;14.00;99.90;;;;;;5030767;28;20465;-63
2023/08/28 05:05:30;;;;;;;3.37;2.90;;;14.00;99.90;;;;;;5030672;28;20453;-63
2023/08/28 05:07:58;;;;;;;6.10;3.67;;;14.00;99.90;;;;;;5030352;28;20835;-63
2023/08/28 05:10:25;;;;;;;3.40;3.10;;;14.00;99.90;;;;;;5030908;28;20489;-63
2023/08/28 05:12:52;;;;;;;4.10;2.83;;;14.00;99.90;;;;;;5030760;28;20924;-63
2023/08/28 05:15:18;;;;;;;4.60;3.00;;;14.10;99.90;;;;;;5030383;28;20460;-63
2023/08/28 05:17:46;;;;;;;3.50;3.30;;;14.10;99.90;;;;;;5029758;28;21275;-64
2023/08/28 05:20:13;;;;;;;3.90;3.60;;;14.10;99.90;;;;;;5030119;28;20441;-64
2023/08/28 05:22:40;;;;;;;3.33;3.13;;;14.10;99.90;;;;;;5024549;28;20465;-63
2023/08/28 05:25:09;;;;;;;3.23;2.93;;;14.10;99.90;;;;;;5030431;28;20544;-64
2023/08/28 05:27:35;;;;;;;5.43;3.33;;;14.20;99.90;;;;;;5029749;28;20449;-64
2023/08/28 05:30:02;;;;;;;3.80;3.50;;;14.20;99.90;;;;;;5030226;28;20555;-63
2023/08/28 05:32:29;;;;;;;3.23;2.90;;;14.20;99.90;;;;;;5028432;28;20471;-64
2023/08/28 05:34:58;;;;;;;3.60;3.23;;;14.20;99.90;;;;;;5030196;28;20572;-64
2023/08/28 05:37:25;;;;;;;3.30;3.10;;;14.20;99.90;;;;;;5029915;28;20448;-64
2023/08/28 05:39:52;;;;;;;3.40;3.20;;;14.20;99.90;;;;;;5030546;28;20456;-64
2023/08/28 05:42:20;;;;;;;3.57;3.07;;;14.30;99.90;;;;;;5030146;28;20469;-64
2023/08/28 05:44:48;;;;;;;3.37;3.17;;;14.30;99.90;;;;;;5030075;28;20540;-64
2023/08/28 05:47:14;;;;;;;5.40;3.20;;;14.30;99.90;;;;;;5029409;28;20540;-64
2023/08/28 05:49:41;;;;;;;4.33;3.33;;;14.30;99.90;;;;;;5030131;28;20838;-64
2023/08/28 05:52:08;;;;;;;3.47;3.17;;;14.40;99.90;;;;;;5029877;28;20492;-64
2023/08/28 05:54:35;;;;;;;3.80;3.47;;;14.40;99.90;;;;;;5030041;28;20483;-64
2023/08/28 05:57:03;;;;;;;3.53;3.23;;;14.50;99.90;;;;;;5028987;28;20968;-64
2023/08/28 05:59:31;;;;;;;5.30;3.30;;;14.50;99.90;;;;;;5029416;28;20449;-64
2023/08/28 06:01:59;;;;;;;5.07;3.87;;;14.50;99.90;;;;;;5029978;28;20445;-64
2023/08/28 06:04:25;;;;;;;4.27;3.87;;;14.50;99.90;;;;;;5029781;28;20488;-64
2023/08/28 06:06:52;;;;;;;4.70;4.30;;;14.60;99.90;;;;;;5029203;28;20446;-64
2023/08/28 06:09:19;;;;;;;4.17;3.77;;;14.60;99.90;;;;;;5029761;28;20449;-64
2023/08/28 06:11:46;;;;;;;3.53;3.23;;;14.60;99.90;;;;;;5029354;28;20492;-64
2023/08/28 06:14:13;;;;;;;3.93;3.27;;;14.60;99.90;;;;;;5029655;28;20469;-63
2023/08/28 06:16:41;;;;;;;3.77;3.47;;;14.60;99.90;;;;;;5028432;28;20453;-65
2023/08/28 06:19:08;;;;;;;4.80;4.10;;;14.60;99.90;;;;;;5029144;28;20540;-65
2023/08/28 06:21:35;;;;;;;4.20;3.80;;;14.60;99.90;;;;;;5029372;28;20540;-65
2023/08/28 06:24:02;;;;;;;3.40;3.10;;;14.60;99.90;;;;;;5029254;28;20560;-65
2023/08/28 06:26:29;;;;;;;3.70;2.90;;;14.70;99.90;;;;;;5028101;28;20543;-65
2023/08/28 06:28:55;;;;;;;4.67;4.30;;;14.70;99.90;;;;;;5028749;28;20460;-65
2023/08/28 06:31:22;;;;;;;3.63;3.40;;;14.70;99.90;;;;;;5027654;28;20495;-65
2023/08/28 06:33:50;;;;;;;4.30;3.90;;;14.80;99.90;;;;;;5029054;28;20469;-65
2023/08/28 06:36:17;;;;;;;4.07;3.73;;;14.80;99.90;;;;;;5023458;28;20454;-65
2023/08/28 06:38:44;;;;;;;4.07;3.67;;;14.80;99.90;;;;;;5008806;28;20963;-65
2023/08/28 06:41:11;;;;;;;4.40;3.30;;;14.90;99.90;;;;;;5009087;28;20439;-65
2023/08/28 06:43:38;;;;;;;3.80;3.47;;;14.80;99.90;;;;;;5009035;28;20482;-65
2023/08/28 06:46:05;;;;;;;2.97;2.87;;;14.90;99.90;;;;;;5008412;28;20557;-65
2023/08/28 06:48:32;;;;;;;3.77;3.47;;;15.00;99.90;;;;;;5008581;28;20995;-65
2023/08/28 06:51:00;;;;;;;4.10;3.37;;;14.90;99.90;;;;;;5007276;28;20481;-65
2023/08/28 06:53:27;;;;;;;4.07;3.20;;;15.00;99.90;;;;;;5009042;28;20773;-64
2023/08/28 06:55:54;;;;;;;5.20;3.30;;;15.00;99.90;;;;;;5008320;28;20451;-65
2023/08/28 06:58:20;;;;;;;3.33;3.13;;;15.00;99.90;;;;;;5008622;28;20943;-65
2023/08/28 07:00:47;;;;;;;2.77;2.57;;;15.00;99.90;;;;;;5008703;28;20442;-65
2023/08/28 07:03:14;;;;;;;3.93;3.60;;;15.00;99.90;;;;;;5009052;28;20474;-64
2023/08/28 07:05:41;;;;;;;3.90;3.60;;;15.00;99.90;;;;;;5009191;28;20459;-65
2023/08/28 07:08:09;;;;;;;3.40;3.20;;;14.90;99.90;;;;;;5008359;28;20482;-65
2023/08/28 07:10:36;;;;;;;3.43;3.10;;;14.90;99.90;;;;;;5007930;28;20943;-65
2023/08/28 07:13:03;;;;;;;2.77;2.57;;;14.90;99.90;;;;;;5008645;28;20477;-64
2023/08/28 07:15:57;;;;;;;3.07;2.87;;;14.90;99.90;;;;;;5008860;28;20537;-64
2023/08/28 07:18:24;;;;;;;3.33;2.93;;;14.90;99.90;;;;;;5008814;28;20557;-64
2023/08/28 07:20:50;;;;;;;3.20;3.00;;;14.90;99.90;;;;;;5008525;28;20442;-64
2023/08/28 07:23:19;;;;;;;4.67;3.33;;;14.90;99.90;;;;;;5000818;28;20465;-64
2023/08/28 07:25:46;;;;;;;2.90;2.70;;;14.80;99.90;;;;;;4994917;28;20533;-65
2023/08/28 07:28:13;;;;;;;3.23;3.03;;;14.80;99.90;;;;;;4991751;28;20536;-64
2023/08/28 07:30:42;;;;;;;4.70;4.40;;;14.80;99.90;;;;;;4999653;28;20525;-64
2023/08/28 07:33:09;;;;;;;3.63;3.13;;;14.80;99.90;;;;;;5006748;28;20477;-64
2023/08/28 07:35:36;;;;;;;2.83;2.63;;;14.90;99.90;;;;;;4988958;28;20462;-64
2023/08/28 07:38:13;;;;;;;3.40;3.10;;;14.90;99.90;;;;;;4988125;28;20543;-64
2023/08/28 07:40:42;;;;;;;3.07;2.87;;;15.00;99.90;;;;;;4989038;28;20459;-64
2023/08/28 07:43:09;;;;;;;2.77;2.57;;;15.00;99.90;;;;;;4988657;28;20852;-64
2023/08/28 07:45:36;;;;;;;2.67;2.57;;;15.00;99.90;;;;;;4988878;28;20529;-64
2023/08/28 07:48:03;;;;;;;3.23;2.93;;;15.10;99.90;;;;;;4988116;28;20461;-64
2023/08/28 07:50:30;;;;;;;2.90;2.70;;;15.20;99.90;;;;;;4988760;28;20451;-64
2023/08/28 07:52:58;;;;;;;3.10;2.90;;;15.20;99.90;;;;;;4988574;28;20529;-64
2023/08/28 07:55:25;;;;;;;3.23;3.03;;;15.30;99.90;;;;;;4988716;28;20451;-64
2023/08/28 07:57:53;;;;;;;3.20;2.90;;;15.30;99.90;;;;;;4988101;28;20453;-64
2023/08/28 08:00:21;;;;;;;2.73;2.63;;;15.40;99.90;;;;;;4988879;28;20450;-64
2023/08/28 08:02:49;;;;;;;3.07;2.87;;;15.50;99.90;;;;;;4988796;28;20472;-64
2023/08/28 08:05:16;;;;;;;3.30;3.00;;;15.60;99.90;;;;;;4988711;28;20457;-64
2023/08/28 08:07:42;;;;;;;3.50;3.20;;;15.70;99.90;;;;;;4987887;28;20466;-64
2023/08/28 08:10:10;;;;;;;3.40;2.20;;;15.70;99.90;;;;;;4988709;28;20450;-64
2023/08/28 08:12:38;;;;;;;2.53;2.30;;;15.80;99.90;;;;;;4988465;28;20495;-65
2023/08/28 08:15:08;;;;;;;2.23;2.13;;;15.80;99.90;;;;;;4988671;28;20450;-65
2023/08/28 08:17:36;;;;;;;3.30;3.10;;;15.90;99.90;;;;;;4987588;28;20530;-64
2023/08/28 08:20:04;;;;;;;2.07;1.97;;;16.00;99.90;;;;;;4988374;28;20944;-64
2023/08/28 08:22:31;;;;;;;2.83;2.67;;;16.00;99.90;;;;;;4993805;28;20546;-64
2023/08/28 08:24:58;;;;;;;2.70;2.60;;;16.00;99.90;;;;;;5013087;28;20462;-64
2023/08/28 08:27:25;;;;;;;2.33;2.23;;;16.10;99.90;;;;;;5025235;28;20529;-64
2023/08/28 08:29:52;;;;;;;3.23;2.73;;;16.10;99.90;;;;;;5016353;28;20500;-64
2023/08/28 08:32:20;;;;;;;2.83;2.70;;;16.20;99.90;;;;;;5029053;28;20568;-64
2023/08/28 08:34:47;;;;;;;1.70;1.60;;;16.20;99.90;;;;;;5019543;28;20577;-64
2023/08/28 08:37:15;;;;;;;2.47;2.27;;;16.20;99.90;;;;;;5029179;28;20914;-65
2023/08/28 08:39:43;;;;;;;2.53;2.33;;;16.30;99.90;;;;;;5022353;28;20481;-64
2023/08/28 08:42:10;;;;;;;3.17;2.97;;;16.30;99.90;;;;;;5015700;28;21199;-64
2023/08/28 08:44:39;;;;;;;3.37;3.17;;;16.30;99.90;;;;;;5020996;28;20836;-65
2023/08/28 08:47:06;;;;;;;2.63;2.43;;;16.30;99.90;;;;;;5018110;28;20449;-65
2023/08/28 08:49:35;;;;;;;2.73;2.63;;;16.30;99.90;;;;;;5015943;28;20453;-65
2023/08/28 08:52:10;;;;;;;3.00;2.80;;;16.40;99.90;;;;;;5020949;28;20551;-65
2023/08/28 08:54:41;;;;;;;4.33;3.13;;;16.40;99.90;;;;;;5018023;28;20452;-64
2023/08/28 08:57:13;;;;;;;3.13;2.93;;;16.50;99.90;;;;;;5027639;28;20952;-64
2023/08/28 08:59:41;;;;;;;3.40;3.17;;;16.50;99.90;;;;;;5023218;28;20466;-65
2023/08/28 09:02:09;;;;;;;2.83;2.67;;;16.60;99.90;;;;;;5027585;28;20546;-64
2023/08/28 09:04:39;;;;;;;2.53;2.43;;;16.60;99.90;;;;;;5019674;28;20542;-64
2023/08/28 09:07:07;;;;;;;3.27;3.10;;;16.60;99.90;;;;;;5018881;28;20849;-64
2023/08/28 09:09:34;;;;;;;2.60;2.50;;;16.70;99.90;;;;;;5020878;28;20542;-64
2023/08/28 09:12:01;;;;;;;2.60;2.10;;;16.70;99.90;;;;;;5024258;28;20497;-64
2023/08/28 09:14:31;;;;;;;3.60;2.50;;;16.70;99.90;;;;;;5017387;28;20459;-64
2023/08/28 09:16:57;;;;;;;2.90;2.70;;;16.70;99.90;;;;;;5022483;28;20456;-64
2023/08/28 09:19:25;;;;;;;2.73;2.53;;;16.80;99.90;;;;;;5021206;28;20465;-64
2023/08/28 09:21:53;;;;;;;2.13;2.03;;;16.90;99.90;;;;;;5029764;28;21032;-65
2023/08/28 09:24:22;;;;;;;3.00;2.57;;;16.90;99.90;;;;;;5014066;28;20472;-64
2023/08/28 09:26:52;;;;;;;3.40;3.10;;;16.90;99.90;;;;;;5020852;28;20937;-64
2023/08/28 09:29:23;;;;;;;2.90;2.70;;;16.90;99.90;;;;;;5018412;28;20460;-64
2023/08/28 09:31:51;;;;;;;3.27;2.97;;;16.90;99.90;;;;;;5020535;28;20581;-64
2023/08/28 09:34:19;;;;;;;2.70;2.60;;;16.90;99.90;;;;;;5010590;28;20526;-63
2023/08/28 09:36:47;;;;;;;3.30;3.10;;;16.90;99.90;;;;;;5027051;28;20915;-64
2023/08/28 09:39:15;;;;;;;3.20;2.90;;;16.90;99.90;;;;;;5012836;28;20579;-63
2023/08/28 09:41:47;;;;;;;3.07;2.87;;;16.90;99.90;;;;;;5027871;28;20564;-64
2023/08/28 09:44:16;;;;;;;3.60;3.40;;;17.00;99.90;;;;;;5028977;28;20488;-63
2023/08/28 09:46:44;;;;;;;4.93;4.63;;;17.00;99.90;;;;;;5020001;28;21021;-64
2023/08/28 09:49:13;;;;;;;3.73;3.47;;;17.00;99.90;;;;;;5029165;28;20940;-64
2023/08/28 09:51:41;;;;;;;4.17;3.10;;;17.00;99.90;;;;;;5028870;28;20490;-64
2023/08/28 09:54:10;;;;;;;4.00;3.70;;;17.10;99.90;;;;;;5015979;28;20482;-64
2023/08/28 09:56:38;;;;;;;3.50;3.20;;;17.10;99.90;;;;;;5020704;28;20508;-64
2023/08/28 09:59:06;;;;;;;3.70;3.50;;;17.10;99.90;;;;;;5018556;28;20471;-64
2023/08/28 10:01:34;;;;;;;3.60;3.30;;;17.10;99.90;;;;;;5019718;28;20534;-64
2023/08/28 10:04:04;;;;;;;4.77;3.20;;;17.10;99.90;;;;;;5018687;28;20891;-63
2023/08/28 10:06:34;;;;;;;3.63;3.33;;;17.10;99.90;;;;;;5024770;28;20932;-63
2023/08/28 10:09:04;;;;;;;5.33;3.40;;;17.10;99.90;;;;;;5019756;28;20459;-64
2023/08/28 10:11:34;;;;;;;2.40;2.30;;;17.10;99.90;;;;;;5024856;28;21066;-63
2023/08/28 10:14:04;;;;;;;3.50;3.20;;;17.20;99.90;;;;;;5019377;28;20847;-64
2023/08/28 10:16:35;;;;;;;2.93;2.73;;;17.20;99.90;;;;;;5018722;28;20484;-64
2023/08/28 10:19:10;;;;;;;3.47;2.90;;;17.20;99.90;;;;;;5019168;28;20464;-64
2023/08/28 10:21:37;;;;;;;3.47;3.17;;;17.20;99.90;;;;;;5025719;28;20469;-64
2023/08/28 10:24:06;;;;;;;4.57;3.20;;;17.20;99.90;;;;;;5019830;28;20479;-64
2023/08/28 10:26:35;;;;;;;3.20;3.00;;;17.20;99.90;;;;;;5016606;28;20456;-64
2023/08/28 10:29:04;;;;;;;3.30;3.07;;;17.20;99.90;;;;;;5019226;28;20461;-64
2023/08/28 10:31:32;;;;;;;2.50;2.37;;;17.20;99.90;;;;;;5016729;28;21028;-64
2023/08/28 10:34:00;;;;;;;3.10;2.90;;;17.20;99.90;;;;;;5020385;28;20487;-64
2023/08/28 10:36:29;;;;;;;2.67;2.47;;;17.20;99.90;;;;;;5011320;28;20455;-63
2023/08/28 10:38:56;;;;;;;2.23;2.03;;;17.30;99.90;;;;;;4996093;28;20547;-64
2023/08/28 10:41:23;;;;;;;2.90;2.80;;;17.40;99.90;;;;;;5008970;28;20538;-64
2023/08/28 10:43:51;;;;;;;2.33;2.13;;;17.40;99.90;;;;;;5012444;28;20494;-64
2023/08/28 10:46:21;;;;;;;2.73;2.63;;;17.40;99.90;;;;;;5008942;28;20487;-64
2023/08/28 10:48:48;;;;;;;2.40;2.30;;;17.50;99.90;;;;;;5014175;28;20459;-64
2023/08/28 10:51:15;;;;;;;2.63;2.47;;;17.60;99.90;;;;;;5009657;28;20451;-64
2023/08/28 10:53:43;;;;;;;2.33;2.23;;;17.70;99.90;;;;;;5016517;28;20493;-64
2023/08/28 10:56:12;;;;;;;2.70;2.50;;;17.80;99.90;;;;;;5008989;28;20491;-64
2023/08/28 10:58:39;;;;;;;3.30;3.10;;;17.90;99.90;;;;;;5014950;28;20463;-64
2023/08/28 11:01:14;;;;;;;3.33;2.40;;;18.00;99.90;;;;;;5008949;28;20451;-64
2023/08/28 11:03:58;;;;;;;2.10;2.00;;;18.10;99.90;;;;;;5016333;28;20480;-64
2023/08/28 11:06:39;;;;;;;2.53;2.33;;;18.10;99.90;;;;;;5008149;28;20558;-64
2023/08/28 11:09:31;;;;;;;2.20;2.10;;;18.30;99.90;;;;;;5012453;28;20472;-64
2023/08/28 11:12:25;;;;;;;2.33;2.23;;;18.40;99.90;;;;;;5002516;28;20588;-64
2023/08/28 11:15:03;;;;;;;1.80;1.70;;;18.40;99.90;;;;;;5013682;28;20544;-64
2023/08/28 11:17:34;;;;;;;2.13;2.03;;;18.40;99.90;;;;;;5015140;28;20559;-64
2023/08/28 11:20:02;;;;;;;2.80;2.43;;;18.40;99.90;;;;;;5004705;28;20841;-64
2023/08/28 11:22:30;;;;;;;1.90;1.80;;;18.50;99.90;;;;;;5016686;28;20478;-64
2023/08/28 11:24:57;;;;;;;1.67;1.57;;;18.60;99.90;;;;;;5008238;28;20998;-64
2023/08/28 11:27:34;;;;;;;1.87;1.77;;;18.60;99.90;;;;;;5011468;28;20454;-65
2023/08/28 11:30:05;;;;;;;1.70;1.60;;;18.70;99.90;;;;;;5001402;28;20456;-64
2023/08/28 11:32:33;;;;;;;1.97;1.80;;;18.70;99.90;;;;;;5014447;28;20487;-64
2023/08/28 11:35:04;;;;;;;2.13;1.90;;;18.80;99.90;;;;;;5016513;28;21077;-64
2023/08/28 11:37:32;;;;;;;1.87;1.77;;;18.80;99.90;;;;;;5006295;28;21037;-64
2023/08/28 11:40:00;;;;;;;2.40;1.60;;;18.90;99.90;;;;;;5012557;28;20449;-64
2023/08/28 11:42:28;;;;;;;1.57;1.47;;;18.90;99.90;;;;;;5007752;28;20477;-64
2023/08/28 11:44:55;;;;;;;1.30;1.30;;;19.00;99.90;;;;;;5015926;28;20451;-64
2023/08/28 11:47:25;;;;;;;1.50;1.40;;;18.90;99.90;;;;;;5007022;28;20452;-64
2023/08/28 11:49:53;;;;;;;1.63;1.53;;;18.90;99.90;;;;;;5012556;28;21029;-64
2023/08/28 11:52:21;;;;;;;2.13;1.70;;;18.90;99.90;;;;;;5009575;28;20504;-64
2023/08/28 11:54:48;;;;;;;1.27;1.27;;;18.90;99.90;;;;;;5017955;28;21098;-64
2023/08/28 11:57:17;;;;;;;1.60;1.50;;;18.80;99.90;;;;;;5009661;28;20540;-64
2023/08/28 11:59:45;;;;;;;2.00;1.90;;;18.80;99.90;;;;;;5018449;28;20464;-64
2023/08/28 12:02:13;;;;;;;2.10;1.10;;;18.80;99.90;;;;;;5017379;28;20461;-64
2023/08/28 12:04:40;;;;;;;1.60;1.47;;;18.80;99.90;;;;;;5021663;28;20467;-64
2023/08/28 12:07:18;;;;;;;1.23;1.23;;;18.80;99.90;;;;;;5012960;28;20492;-64
2023/08/28 12:09:47;;;;;;;1.30;1.30;;;18.90;99.90;;;;;;5019217;28;20837;-64
2023/08/28 12:12:15;;;;;;;1.00;1.00;;;18.90;99.90;;;;;;5017614;28;20574;-64
2023/08/28 12:14:45;;;;;;;1.93;1.40;;;19.00;99.90;;;;;;5021081;28;20464;-64
2023/08/28 12:17:16;;;;;;;1.00;0.97;;;19.10;99.90;;;;;;5013301;28;20519;-64
2023/08/28 12:19:43;;;;;;;1.30;1.30;;;19.30;99.90;;;;;;5018923;28;20448;-64
2023/08/28 12:22:11;;;;;;;4.13;1.17;;;19.40;99.90;;;;;;5018578;28;20460;-64
2023/08/28 12:24:47;;;;;;;1.23;1.13;;;19.60;99.90;;;;;;5021085;28;20475;-64
2023/08/28 12:27:15;;;;;;;1.13;1.10;;;19.80;99.90;;;;;;5012388;28;20456;-64
2023/08/28 12:29:42;;;;;;;1.50;1.40;;;19.90;99.90;;;;;;5020617;28;20458;-64
2023/08/28 12:32:10;;;;;;;1.30;1.20;;;20.00;99.90;;;;;;5017006;28;20537;-64
2023/08/28 12:34:38;;;;;;;1.10;1.10;;;20.00;99.90;;;;;;5021100;28;20455;-64
2023/08/28 12:37:07;;;;;;;1.53;1.40;;;20.00;99.90;;;;;;5007028;28;20462;-64
2023/08/28 12:39:34;;;;;;;1.03;1.03;;;20.00;99.90;;;;;;5018588;28;20890;-64
2023/08/28 12:42:03;;;;;;;0.83;0.80;;;20.10;99.90;;;;;;5018076;28;20457;-64
2023/08/28 12:44:31;;;;;;;1.30;1.17;;;20.00;99.90;;;;;;5019695;28;20541;-64
2023/08/28 12:46:58;;;;;;;1.40;1.20;;;20.00;99.90;;;;;;5013194;28;20453;-64
2023/08/28 12:49:26;;;;;;;2.57;0.90;;;20.10;99.90;;;;;;5018450;28;20450;-64
2023/08/28 12:51:54;;;;;;;5.80;1.80;;;20.10;99.90;;;;;;5018783;28;20492;-64
2023/08/28 12:54:21;;;;;;;1.03;1.03;;;20.10;99.90;;;;;;5007554;28;20501;-64